Time;durP1;ratioP1;P1;durP2;ratioP2;P2;SDS_P1;SDS_P2;PMS_P1;PMS_P2;Temp;Humidity;BMP_temperature;BMP_pressure;BME280_temperature;BME280_humidity;BME280_pressure;Samples;Min_cycle;Max_cycle;Signal;HPM_P1;HPM_P2
2024/01/18 00:00:08;;;;;;;4.40;4.00;;;;;;;;;;4917494;29;20111;-62
2024/01/18 00:02:33;;;;;;;5.00;3.63;;;;;;;;;;4917395;29;20039;-61
2024/01/18 00:04:59;;;;;;;4.45;3.92;;;;;;;;;;4917372;29;20036;-61
2024/01/18 00:07:24;;;;;;;4.80;3.70;;;;;;;;;;4917302;29;20042;-61
2024/01/18 00:09:50;;;;;;;5.53;4.00;;;;;;;;;;4916913;29;20129;-61
2024/01/18 00:12:15;;;;;;;4.50;3.80;;;;;;;;;;4917016;29;20028;-60
2024/01/18 00:14:41;;;;;;;5.80;4.10;;;;;;;;;;4917021;29;20043;-60
2024/01/18 00:17:06;;;;;;;4.88;3.70;;;;;;;;;;4916790;29;20425;-61
2024/01/18 00:19:32;;;;;;;4.47;3.60;;;;;;;;;;4916736;29;20111;-72
2024/01/18 00:21:57;;;;;;;4.82;3.50;;;;;;;;;;4916813;29;20031;-61
2024/01/18 00:24:23;;;;;;;4.28;3.80;;;;;;;;;;4916854;29;20083;-61
2024/01/18 00:26:48;;;;;;;5.38;4.10;;;;;;;;;;4916788;29;20036;-61
2024/01/18 00:29:14;;;;;;;5.65;3.80;;;;;;;;;;4916841;29;20425;-61
2024/01/18 00:31:40;;;;;;;5.18;3.80;;;;;;;;;;4916803;29;20099;-62
2024/01/18 00:34:05;;;;;;;5.47;4.00;;;;;;;;;;4900038;29;20047;-61
2024/01/18 00:36:31;;;;;;;6.63;4.22;;;;;;;;;;4916647;29;20154;-61
2024/01/18 00:38:57;;;;;;;4.45;3.50;;;;;;;;;;4917016;29;20405;-61
2024/01/18 00:41:22;;;;;;;4.30;3.80;;;;;;;;;;4916533;29;20477;-60
2024/01/18 00:43:48;;;;;;;5.20;3.75;;;;;;;;;;4916536;29;20028;-64
2024/01/18 00:46:17;;;;;;;4.85;4.03;;;;;;;;;;4916282;29;20131;-60
2024/01/18 00:48:42;;;;;;;4.82;3.85;;;;;;;;;;4916485;29;20032;-61
2024/01/18 00:51:08;;;;;;;4.82;4.00;;;;;;;;;;4916814;29;20035;-61
2024/01/18 00:53:33;;;;;;;4.00;3.60;;;;;;;;;;4916433;29;20473;-61
2024/01/18 00:56:01;;;;;;;5.07;3.80;;;;;;;;;;4916408;29;20056;-60
2024/01/18 00:58:27;;;;;;;4.65;3.92;;;;;;;;;;4916491;29;20068;-61
2024/01/18 01:00:52;;;;;;;4.50;4.00;;;;;;;;;;4899425;29;20135;-61
2024/01/18 01:03:18;;;;;;;5.38;3.85;;;;;;;;;;4916599;29;20028;-61
2024/01/18 01:05:43;;;;;;;4.60;3.40;;;;;;;;;;4916918;29;20120;-61
2024/01/18 01:08:09;;;;;;;5.47;3.90;;;;;;;;;;4916234;29;20532;-61
2024/01/18 01:10:34;;;;;;;5.40;3.97;;;;;;;;;;4916277;29;20048;-60
2024/01/18 01:13:00;;;;;;;4.47;3.85;;;;;;;;;;4916186;29;20035;-61
2024/01/18 01:15:25;;;;;;;5.28;3.42;;;;;;;;;;4915928;29;20028;-61
2024/01/18 01:17:51;;;;;;;5.63;3.80;;;;;;;;;;4916168;29;20024;-61
2024/01/18 01:20:16;;;;;;;4.95;3.63;;;;;;;;;;4916103;29;20038;-61
2024/01/18 01:22:42;;;;;;;4.50;3.65;;;;;;;;;;4916240;29;20043;-61
2024/01/18 01:25:08;;;;;;;4.70;3.42;;;;;;;;;;4916080;29;20477;-60
2024/01/18 01:27:34;;;;;;;5.28;3.60;;;;;;;;;;4916138;29;20032;-60
2024/01/18 01:29:59;;;;;;;5.10;3.70;;;;;;;;;;4915904;29;20160;-60
2024/01/18 01:32:25;;;;;;;4.75;3.53;;;;;;;;;;4916793;29;20111;-60
2024/01/18 01:34:51;;;;;;;4.88;3.60;;;;;;;;;;4916044;29;20032;-61
2024/01/18 01:37:16;;;;;;;4.75;3.90;;;;;;;;;;4915889;29;20481;-61
2024/01/18 01:39:42;;;;;;;4.13;3.50;;;;;;;;;;4916057;29;20021;-61
2024/01/18 01:42:08;;;;;;;4.18;3.58;;;;;;;;;;4916092;29;20024;-61
2024/01/18 01:44:34;;;;;;;5.47;3.70;;;;;;;;;;4913809;29;20032;-60
2024/01/18 01:46:59;;;;;;;4.82;3.72;;;;;;;;;;4915976;29;20044;-61
2024/01/18 01:49:25;;;;;;;4.90;3.50;;;;;;;;;;4916015;29;20028;-61
2024/01/18 11:45:04;;;;;;;3.58;2.30;;;;;;;;;;5154369;23;20048;-68
2024/01/18 11:47:35;;;;;;;2.80;2.33;;;;;;;;;;4936375;29;20480;-68
2024/01/18 11:50:10;;;;;;;4.63;2.67;;;;;;;;;;4936455;29;20027;-64
2024/01/18 11:52:38;;;;;;;3.47;2.22;;;;;;;;;;4936774;29;20032;-65
2024/01/18 11:55:05;;;;;;;4.05;2.33;;;;;;;;;;4936540;29;20031;-67
2024/01/18 11:57:32;;;;;;;2.95;2.53;;;;;;;;;;4936465;29;20038;-67
2024/01/18 11:59:58;;;;;;;2.55;2.35;;;;;;;;;;4936220;29;20129;-67
2024/01/18 12:02:26;;;;;;;3.80;2.42;;;;;;;;;;4936059;29;20028;-69
2024/01/18 12:04:52;;;;;;;8.05;2.40;;;;;;;;;;4936013;29;20432;-68
2024/01/18 12:07:19;;;;;;;3.33;2.42;;;;;;;;;;4936219;29;20027;-68
2024/01/18 12:09:45;;;;;;;2.53;2.33;;;;;;;;;;4936110;29;20481;-69
2024/01/18 12:12:11;;;;;;;2.97;2.53;;;;;;;;;;4936046;29;20031;-68
2024/01/18 12:14:42;;;;;;;3.45;2.30;;;;;;;;;;4936099;29;20024;-67
2024/01/18 12:17:09;;;;;;;3.72;2.42;;;;;;;;;;4935607;29;20031;-65
2024/01/18 12:19:37;;;;;;;3.70;2.47;;;;;;;;;;4935810;29;20484;-65
2024/01/18 12:22:09;;;;;;;3.25;2.63;;;;;;;;;;4918976;29;20036;-66
2024/01/18 12:24:35;;;;;;;2.67;2.30;;;;;;;;;;4935992;29;20027;-65
2024/01/18 12:27:02;;;;;;;2.92;2.30;;;;;;;;;;4935866;29;20034;-65
2024/01/18 12:29:28;;;;;;;4.68;2.15;;;;;;;;;;4935950;29;20130;-65
2024/01/18 12:31:55;;;;;;;3.50;2.28;;;;;;;;;;4935835;29;20031;-67
2024/01/18 12:34:21;;;;;;;2.60;2.20;;;;;;;;;;4935698;29;20026;-68
2024/01/18 12:36:47;;;;;;;2.92;2.30;;;;;;;;;;4935515;29;20387;-69
2024/01/18 12:39:14;;;;;;;2.75;2.13;;;;;;;;;;4935656;29;20111;-67
2024/01/18 12:41:40;;;;;;;2.85;2.28;;;;;;;;;;4935291;29;20407;-65
2024/01/18 12:44:11;;;;;;;5.63;2.60;;;;;;;;;;4935319;29;20065;-68
2024/01/18 12:46:37;;;;;;;3.58;2.30;;;;;;;;;;4935536;29;20036;-65
2024/01/18 12:49:03;;;;;;;6.90;2.30;;;;;;;;;;4935547;29;20039;-67
2024/01/18 12:51:29;;;;;;;12.10;2.58;;;;;;;;;;4935484;29;20020;-68
2024/01/18 12:53:55;;;;;;;5.65;2.55;;;;;;;;;;4935488;29;20032;-64
2024/01/18 12:56:22;;;;;;;4.20;2.85;;;;;;;;;;4935198;29;20077;-65
2024/01/18 12:58:47;;;;;;;7.80;2.70;;;;;;;;;;4935365;29;20027;-65
2024/01/18 13:01:30;;;;;;;3.30;2.40;;;;;;;;;;4935275;29;20095;-65
2024/01/18 13:04:08;;;;;;;3.10;2.20;;;;;;;;;;4936920;29;20038;-73
2024/01/18 13:06:34;;;;;;;5.53;2.50;;;;;;;;;;4938888;29;20536;-78
2024/01/18 13:09:00;;;;;;;6.63;2.72;;;;;;;;;;4937989;29;20028;-73
2024/01/18 13:11:26;;;;;;;3.45;2.50;;;;;;;;;;4935280;29;20047;-73
2024/01/18 13:13:52;;;;;;;3.38;2.15;;;;;;;;;;4935012;29;20473;-74
2024/01/18 13:16:19;;;;;;;4.93;2.65;;;;;;;;;;4934971;29;20162;-74
2024/01/18 13:18:45;;;;;;;8.38;2.30;;;;;;;;;;4935357;29;20035;-74
2024/01/18 13:21:11;;;;;;;4.80;2.40;;;;;;;;;;4935205;29;20024;-74
2024/01/18 13:23:36;;;;;;;6.72;2.85;;;;;;;;;;4935198;29;20043;-73
2024/01/18 13:26:02;;;;;;;3.90;2.38;;;;;;;;;;4935252;29;20028;-72
2024/01/18 13:28:29;;;;;;;3.65;2.28;;;;;;;;;;4935465;29;20071;-70
2024/01/18 13:30:55;;;;;;;3.72;2.65;;;;;;;;;;4935264;29;20396;-71
2024/01/18 13:33:20;;;;;;;2.22;2.03;;;;;;;;;;4935151;29;20038;-71
2024/01/18 13:35:46;;;;;;;2.30;2.08;;;;;;;;;;4935267;29;20058;-71
2024/01/18 13:38:12;;;;;;;3.13;2.45;;;;;;;;;;4934731;29;20440;-70
2024/01/18 13:40:37;;;;;;;3.05;2.45;;;;;;;;;;4934853;29;20036;-70
2024/01/18 13:43:04;;;;;;;3.33;2.50;;;;;;;;;;4935079;29;20055;-70
2024/01/18 13:45:29;;;;;;;4.80;2.22;;;;;;;;;;4934780;29;20028;-69
2024/01/18 13:47:55;;;;;;;5.63;2.25;;;;;;;;;;4934783;29;20122;-70
2024/01/18 13:50:23;;;;;;;5.78;2.35;;;;;;;;;;4934977;29;20035;-70
2024/01/18 13:52:49;;;;;;;3.33;2.47;;;;;;;;;;4934798;29;20062;-70
2024/01/18 13:55:15;;;;;;;4.35;2.13;;;;;;;;;;4937048;29;20059;-70
2024/01/18 13:57:41;;;;;;;2.92;2.45;;;;;;;;;;4938303;29;20044;-70
2024/01/18 14:00:09;;;;;;;3.63;2.30;;;;;;;;;;4938351;29;20032;-70
2024/01/18 14:02:34;;;;;;;3.30;2.10;;;;;;;;;;4938274;29;20063;-70
2024/01/18 14:05:00;;;;;;;4.43;2.50;;;;;;;;;;4938229;29;20068;-69
2024/01/18 14:07:25;;;;;;;2.90;2.30;;;;;;;;;;4938226;29;20023;-70
2024/01/18 14:09:51;;;;;;;2.60;2.10;;;;;;;;;;4938202;29;20043;-70
2024/01/18 14:12:16;;;;;;;3.40;2.40;;;;;;;;;;4938176;29;20373;-69
2024/01/18 14:14:42;;;;;;;3.22;2.50;;;;;;;;;;4937999;29;20044;-70
2024/01/18 14:17:08;;;;;;;2.47;2.20;;;;;;;;;;4937972;29;20032;-70
2024/01/18 14:19:34;;;;;;;3.10;2.72;;;;;;;;;;4938205;29;20120;-69
2024/01/18 14:21:59;;;;;;;5.00;2.67;;;;;;;;;;4937971;29;20043;-70
2024/01/18 14:24:25;;;;;;;3.78;2.13;;;;;;;;;;4935085;29;20032;-69
2024/01/18 14:26:50;;;;;;;4.15;2.33;;;;;;;;;;4926969;29;20385;-70
2024/01/18 14:29:16;;;;;;;5.45;2.30;;;;;;;;;;4928618;29;20051;-70
2024/01/18 14:31:41;;;;;;;2.50;2.20;;;;;;;;;;4927875;29;20031;-70
2024/01/18 14:34:07;;;;;;;2.58;1.92;;;;;;;;;;4924612;29;20032;-69
2024/01/18 14:36:33;;;;;;;3.08;2.20;;;;;;;;;;4918700;29;20032;-70
2024/01/18 14:38:58;;;;;;;3.70;2.05;;;;;;;;;;4918963;29;20095;-71
2024/01/18 14:41:24;;;;;;;3.05;2.17;;;;;;;;;;4918786;29;20108;-71
2024/01/18 14:43:49;;;;;;;3.85;2.38;;;;;;;;;;4918516;29;20072;-72
2024/01/18 14:46:15;;;;;;;2.40;2.10;;;;;;;;;;4926696;29;20499;-70
2024/01/18 14:48:40;;;;;;;5.90;2.50;;;;;;;;;;4930508;29;20027;-70
2024/01/18 14:51:06;;;;;;;2.20;2.00;;;;;;;;;;4936454;29;20031;-70
2024/01/18 14:53:31;;;;;;;7.80;2.75;;;;;;;;;;4936572;29;20472;-70
2024/01/18 14:55:57;;;;;;;2.70;2.33;;;;;;;;;;4933376;29;20110;-69
2024/01/18 14:58:22;;;;;;;3.42;2.10;;;;;;;;;;4936552;29;20076;-70
2024/01/18 15:00:48;;;;;;;3.20;2.38;;;;;;;;;;4914988;29;20024;-67
2024/01/18 15:03:15;;;;;;;4.25;2.50;;;;;;;;;;4934587;29;20031;-76
2024/01/18 15:05:40;;;;;;;3.60;2.40;;;;;;;;;;4934849;29;20392;-76
2024/01/18 15:08:06;;;;;;;4.85;2.60;;;;;;;;;;4936372;29;20027;-72
2024/01/18 15:10:31;;;;;;;6.43;2.60;;;;;;;;;;4936226;29;20481;-71
2024/01/18 15:12:57;;;;;;;4.70;2.70;;;;;;;;;;4937422;29;20044;-71
2024/01/18 15:15:23;;;;;;;3.60;3.08;;;;;;;;;;4935415;29;20484;-69
2024/01/18 15:17:48;;;;;;;5.18;3.28;;;;;;;;;;4934999;29;20538;-69
2024/01/18 15:20:14;;;;;;;7.88;3.10;;;;;;;;;;4936032;29;20027;-69
2024/01/18 15:22:40;;;;;;;5.88;3.38;;;;;;;;;;4935811;29;20032;-68
2024/01/18 15:25:08;;;;;;;3.58;2.75;;;;;;;;;;4936747;29;20047;-68
2024/01/18 15:27:35;;;;;;;5.65;3.30;;;;;;;;;;4935545;29;20035;-69
2024/01/18 15:30:01;;;;;;;6.07;2.60;;;;;;;;;;4936825;29;20384;-69
2024/01/18 15:32:27;;;;;;;5.30;2.95;;;;;;;;;;4929062;29;20047;-70
2024/01/18 15:34:52;;;;;;;4.78;2.85;;;;;;;;;;4930256;29;21674;-71
2024/01/18 15:37:19;;;;;;;4.07;3.03;;;;;;;;;;4934570;29;20027;-69
2024/01/18 15:39:44;;;;;;;7.80;2.97;;;;;;;;;;4935711;29;20023;-71
2024/01/18 15:42:10;;;;;;;3.97;2.75;;;;;;;;;;4934185;29;20487;-71
2024/01/18 15:44:35;;;;;;;7.30;3.13;;;;;;;;;;4935218;29;20047;-69
2024/01/18 15:47:04;;;;;;;4.47;2.67;;;;;;;;;;4928599;29;20035;-70
2024/01/18 15:49:33;;;;;;;8.25;3.03;;;;;;;;;;4928021;29;20428;-69
2024/01/18 15:51:59;;;;;;;6.07;3.40;;;;;;;;;;4934976;29;20028;-68
2024/01/18 15:54:25;;;;;;;3.38;2.92;;;;;;;;;;4935370;29;20047;-67
2024/01/18 15:56:51;;;;;;;4.53;2.90;;;;;;;;;;4934869;29;20024;-68
2024/01/18 15:59:17;;;;;;;6.80;3.10;;;;;;;;;;4936374;29;20469;-67
2024/01/18 16:01:42;;;;;;;2.85;2.60;;;;;;;;;;4936226;29;20030;-68
2024/01/18 16:04:09;;;;;;;4.65;3.10;;;;;;;;;;4936163;29;20432;-68
2024/01/18 16:06:35;;;;;;;5.72;3.28;;;;;;;;;;4936363;29;20412;-68
2024/01/18 16:09:02;;;;;;;5.30;2.85;;;;;;;;;;4935985;29;20036;-72
2024/01/18 16:11:27;;;;;;;3.40;3.08;;;;;;;;;;4935651;29;20038;-68
2024/01/18 16:13:53;;;;;;;3.65;2.72;;;;;;;;;;4929797;29;20122;-68
2024/01/18 16:16:18;;;;;;;3.25;2.60;;;;;;;;;;4931199;29;20024;-68
2024/01/18 16:18:44;;;;;;;4.57;2.92;;;;;;;;;;4933123;29;20024;-69
2024/01/18 16:21:10;;;;;;;4.72;2.45;;;;;;;;;;4935624;29;20016;-68
2024/01/18 16:23:35;;;;;;;5.47;2.97;;;;;;;;;;4935887;29;20035;-70
2024/01/18 16:26:01;;;;;;;4.60;3.10;;;;;;;;;;4935702;29;20131;-69
2024/01/18 16:28:27;;;;;;;6.82;3.10;;;;;;;;;;4935751;29;20024;-66
2024/01/18 16:30:54;;;;;;;3.70;2.70;;;;;;;;;;4935995;29;20027;-70
2024/01/18 16:33:20;;;;;;;3.90;2.70;;;;;;;;;;4934771;29;20122;-68
2024/01/18 16:35:46;;;;;;;4.63;2.97;;;;;;;;;;4935848;29;20057;-69
2024/01/18 16:38:11;;;;;;;5.25;2.75;;;;;;;;;;4935582;29;20069;-68
2024/01/18 16:40:39;;;;;;;4.18;2.80;;;;;;;;;;4935878;29;20027;-69
2024/01/18 16:43:05;;;;;;;4.03;2.75;;;;;;;;;;4935379;29;20086;-68
2024/01/18 16:45:31;;;;;;;5.85;2.67;;;;;;;;;;4935476;29;20031;-68
2024/01/18 16:47:57;;;;;;;3.42;2.97;;;;;;;;;;4935403;29;20027;-67
2024/01/18 16:50:22;;;;;;;3.70;2.90;;;;;;;;;;4935662;29;20038;-68
2024/01/18 16:52:49;;;;;;;2.92;2.47;;;;;;;;;;4935452;29;20484;-68
2024/01/18 16:55:15;;;;;;;3.75;2.70;;;;;;;;;;4926873;29;20032;-71
2024/01/18 16:57:41;;;;;;;3.42;3.10;;;;;;;;;;4918511;29;20087;-73
2024/01/18 17:00:10;;;;;;;3.75;3.00;;;;;;;;;;4930081;29;20035;-71
2024/01/18 17:02:40;;;;;;;3.83;3.00;;;;;;;;;;4935241;29;20028;-71
2024/01/18 17:05:06;;;;;;;4.60;2.88;;;;;;;;;;4935325;29;20032;-73
2024/01/18 17:07:35;;;;;;;3.88;2.78;;;;;;;;;;4935130;29;20055;-70
2024/01/18 17:10:05;;;;;;;5.20;3.07;;;;;;;;;;4935282;29;20031;-73
2024/01/18 17:12:33;;;;;;;6.45;2.83;;;;;;;;;;4935230;29;20030;-69
2024/01/18 17:14:59;;;;;;;5.25;2.90;;;;;;;;;;4935130;29;20049;-73
2024/01/18 17:17:25;;;;;;;2.72;2.45;;;;;;;;;;4935280;29;20388;-72
2024/01/18 17:19:50;;;;;;;3.58;2.80;;;;;;;;;;4935020;29;20020;-73
2024/01/18 17:22:16;;;;;;;3.10;2.80;;;;;;;;;;4935376;29;20031;-70
2024/01/18 17:24:42;;;;;;;4.47;2.80;;;;;;;;;;4935072;29;20475;-73
2024/01/18 17:27:11;;;;;;;5.47;3.38;;;;;;;;;;4917991;29;20043;-69
2024/01/18 17:29:38;;;;;;;4.60;2.67;;;;;;;;;;4938154;29;20030;-73
2024/01/18 17:32:03;;;;;;;4.88;3.15;;;;;;;;;;4938963;29;20032;-71
2024/01/18 17:34:29;;;;;;;5.68;3.05;;;;;;;;;;4939622;29;20043;-69
2024/01/18 17:36:56;;;;;;;4.68;2.88;;;;;;;;;;4939019;29;20115;-71
2024/01/18 17:39:21;;;;;;;3.42;2.60;;;;;;;;;;4939106;29;20451;-72
2024/01/18 17:41:47;;;;;;;5.22;2.88;;;;;;;;;;4935650;29;20032;-70
2024/01/18 17:44:13;;;;;;;5.15;3.08;;;;;;;;;;4938495;29;20540;-72
2024/01/18 17:46:38;;;;;;;4.35;2.97;;;;;;;;;;4938715;29;20102;-71
2024/01/18 17:49:04;;;;;;;3.33;2.70;;;;;;;;;;4938659;29;20035;-71
2024/01/18 17:51:29;;;;;;;4.25;2.78;;;;;;;;;;4938661;29;20043;-72
2024/01/18 17:53:55;;;;;;;3.58;2.70;;;;;;;;;;4938629;29;20524;-72
2024/01/18 17:56:20;;;;;;;5.13;3.20;;;;;;;;;;4938375;29;20166;-71
2024/01/18 17:58:46;;;;;;;3.30;2.90;;;;;;;;;;4938429;29;20027;-71
2024/01/18 18:01:14;;;;;;;3.10;2.80;;;;;;;;;;4921349;29;20055;-71
2024/01/18 18:03:40;;;;;;;2.88;2.50;;;;;;;;;;4935645;29;20107;-69
2024/01/18 18:06:06;;;;;;;4.72;2.70;;;;;;;;;;4921246;29;20074;-72
2024/01/18 18:08:32;;;;;;;4.22;2.65;;;;;;;;;;4938503;29;20127;-71
2024/01/18 18:10:59;;;;;;;3.97;2.80;;;;;;;;;;4938236;29;20532;-71
2024/01/18 18:13:26;;;;;;;4.72;2.92;;;;;;;;;;4938730;29;20032;-70
2024/01/18 18:15:52;;;;;;;3.25;2.53;;;;;;;;;;4938252;29;20027;-70
2024/01/18 18:18:18;;;;;;;3.40;2.70;;;;;;;;;;4935843;29;20366;-69
2024/01/18 18:20:43;;;;;;;3.85;2.53;;;;;;;;;;4933165;29;20114;-72
2024/01/18 18:23:09;;;;;;;4.05;2.90;;;;;;;;;;4937520;29;20114;-71
2024/01/18 18:25:34;;;;;;;3.05;2.38;;;;;;;;;;4937499;29;20499;-71
2024/01/18 18:28:00;;;;;;;9.07;2.60;;;;;;;;;;4937535;29;20470;-72
2024/01/18 18:30:26;;;;;;;2.80;2.50;;;;;;;;;;4938019;29;20135;-72
2024/01/18 18:32:51;;;;;;;4.43;2.70;;;;;;;;;;4937185;29;20028;-69
2024/01/18 18:35:16;;;;;;;4.38;2.92;;;;;;;;;;4937909;29;20106;-72
2024/01/18 18:37:42;;;;;;;3.08;2.47;;;;;;;;;;4940113;29;20031;-74
2024/01/18 18:40:08;;;;;;;5.13;2.90;;;;;;;;;;4937697;29;20035;-71
2024/01/18 18:42:34;;;;;;;14.27;2.75;;;;;;;;;;4913353;29;20373;-72
2024/01/18 18:45:00;;;;;;;5.88;2.83;;;;;;;;;;4937670;29;20047;-73
2024/01/18 18:47:25;;;;;;;5.20;3.17;;;;;;;;;;4938510;29;20030;-75
2024/01/18 18:49:51;;;;;;;6.10;2.90;;;;;;;;;;4939289;29;20020;-72
2024/01/18 18:52:16;;;;;;;6.03;3.17;;;;;;;;;;4939720;29;20115;-75
2024/01/18 18:54:42;;;;;;;9.68;3.17;;;;;;;;;;4940358;29;20051;-70
2024/01/18 18:57:07;;;;;;;6.00;3.63;;;;;;;;;;4936109;29;20042;-69
2024/01/18 18:59:33;;;;;;;11.07;3.03;;;;;;;;;;4936288;29;20485;-71
2024/01/18 19:01:59;;;;;;;6.88;3.60;;;;;;;;;;4919264;29;20023;-69
2024/01/18 19:04:24;;;;;;;7.53;3.30;;;;;;;;;;4936103;29;20494;-72
2024/01/18 19:06:50;;;;;;;9.00;3.70;;;;;;;;;;4935077;29;20028;-69
2024/01/18 19:09:15;;;;;;;7.97;4.25;;;;;;;;;;4935330;29;20071;-70
2024/01/18 19:11:41;;;;;;;6.65;3.80;;;;;;;;;;4936695;29;20528;-70
2024/01/18 19:14:06;;;;;;;5.22;3.72;;;;;;;;;;4935992;29;20043;-71
2024/01/18 19:16:32;;;;;;;7.63;4.18;;;;;;;;;;4937000;29;20036;-69
2024/01/18 19:18:58;;;;;;;11.55;3.80;;;;;;;;;;4935279;29;20050;-70
2024/01/18 19:21:24;;;;;;;18.45;4.50;;;;;;;;;;4933956;29;20039;-70
2024/01/18 19:23:50;;;;;;;10.57;3.67;;;;;;;;;;4936951;29;20489;-70
2024/01/18 19:26:15;;;;;;;7.15;3.80;;;;;;;;;;4937091;29;20028;-69
2024/01/18 19:28:41;;;;;;;11.82;3.70;;;;;;;;;;4936845;29;20020;-69
2024/01/18 19:31:07;;;;;;;10.88;3.65;;;;;;;;;;4936361;29;20503;-71
2024/01/18 19:33:33;;;;;;;6.68;3.78;;;;;;;;;;4936585;29;20039;-70
2024/01/18 19:35:58;;;;;;;6.15;3.95;;;;;;;;;;4937017;29;20034;-70
2024/01/18 19:38:24;;;;;;;7.53;3.65;;;;;;;;;;4936475;29;20046;-69
2024/01/18 19:40:52;;;;;;;5.57;3.00;;;;;;;;;;4936673;29;20082;-71
2024/01/18 19:43:18;;;;;;;13.45;4.28;;;;;;;;;;4936686;29;20074;-69
2024/01/18 19:45:43;;;;;;;11.73;3.47;;;;;;;;;;4936808;29;20059;-73
2024/01/18 19:48:09;;;;;;;7.75;3.47;;;;;;;;;;4936539;29;20477;-71
2024/01/18 19:50:35;;;;;;;8.98;3.70;;;;;;;;;;4936411;29;20031;-72
2024/01/18 19:53:02;;;;;;;8.13;3.35;;;;;;;;;;4936127;29;20461;-73
2024/01/18 19:55:27;;;;;;;11.25;3.55;;;;;;;;;;4928028;29;20488;-71
2024/01/18 19:57:53;;;;;;;7.43;3.10;;;;;;;;;;4922423;29;20043;-72
2024/01/18 20:00:22;;;;;;;6.72;3.33;;;;;;;;;;4917161;29;20111;-72
2024/01/18 20:02:47;;;;;;;6.28;3.70;;;;;;;;;;4917166;29;20036;-69
2024/01/18 20:05:13;;;;;;;6.88;3.60;;;;;;;;;;4918091;29;20036;-68
2024/01/18 20:07:39;;;;;;;6.65;3.47;;;;;;;;;;4933001;29;20042;-72
2024/01/18 20:10:05;;;;;;;6.25;4.22;;;;;;;;;;4936080;29;20024;-70
2024/01/18 20:12:30;;;;;;;4.78;3.22;;;;;;;;;;4936015;29;20035;-73
2024/01/18 20:14:56;;;;;;;4.05;3.17;;;;;;;;;;4936266;29;20035;-70
2024/01/18 20:17:22;;;;;;;6.47;3.85;;;;;;;;;;4935950;29;20038;-69
2024/01/18 20:19:47;;;;;;;5.97;3.53;;;;;;;;;;4935913;29;20031;-69
2024/01/18 20:22:13;;;;;;;4.35;3.20;;;;;;;;;;4936125;29;20028;-70
2024/01/18 20:24:43;;;;;;;10.85;4.00;;;;;;;;;;4935870;29;20476;-68
2024/01/18 20:27:12;;;;;;;6.13;3.30;;;;;;;;;;4936096;29;20527;-68
2024/01/18 20:29:38;;;;;;;6.20;3.70;;;;;;;;;;4935786;29;20036;-67
2024/01/18 20:32:05;;;;;;;5.65;3.72;;;;;;;;;;4935814;29;20496;-69
2024/01/18 20:34:30;;;;;;;4.60;3.30;;;;;;;;;;4935714;29;20027;-72
2024/01/18 20:36:56;;;;;;;6.85;3.42;;;;;;;;;;4934159;29;20027;-67
2024/01/18 20:39:22;;;;;;;4.03;3.10;;;;;;;;;;4934841;29;20114;-71
2024/01/18 20:41:47;;;;;;;11.70;3.72;;;;;;;;;;4935301;29;20031;-69
2024/01/18 20:44:13;;;;;;;12.10;3.38;;;;;;;;;;4935361;29;20111;-69
2024/01/18 20:46:39;;;;;;;12.15;4.20;;;;;;;;;;4932660;29;20039;-69
2024/01/18 20:49:06;;;;;;;9.60;3.70;;;;;;;;;;4934737;29;20148;-70
2024/01/18 20:51:32;;;;;;;19.73;4.30;;;;;;;;;;4935155;29;20428;-70
2024/01/18 20:53:58;;;;;;;17.67;4.10;;;;;;;;;;4935288;29;20055;-70
2024/01/18 20:56:24;;;;;;;7.85;3.67;;;;;;;;;;4934970;29;20028;-70
2024/01/18 20:58:49;;;;;;;12.80;3.80;;;;;;;;;;4934901;29;20302;-69
2024/01/18 21:01:15;;;;;;;10.60;3.45;;;;;;;;;;4933751;29;20059;-69
2024/01/18 21:03:41;;;;;;;14.90;3.40;;;;;;;;;;4934963;29;20535;-69
2024/01/18 21:06:06;;;;;;;11.00;3.67;;;;;;;;;;4935552;29;20031;-69
2024/01/18 21:08:33;;;;;;;8.52;3.80;;;;;;;;;;4935318;29;20035;-70
2024/01/18 21:10:59;;;;;;;12.98;3.53;;;;;;;;;;4935217;29;20020;-69
2024/01/18 21:13:25;;;;;;;6.25;3.42;;;;;;;;;;4935292;29;20034;-69
2024/01/18 21:15:51;;;;;;;9.70;3.70;;;;;;;;;;4935291;29;20035;-70
2024/01/18 21:18:17;;;;;;;7.75;3.30;;;;;;;;;;4935095;29;20027;-69
2024/01/18 21:20:42;;;;;;;6.40;3.40;;;;;;;;;;4935279;29;20474;-70
2024/01/18 21:23:08;;;;;;;6.82;3.40;;;;;;;;;;4935104;29;20036;-70
2024/01/18 21:25:33;;;;;;;7.82;3.63;;;;;;;;;;4935022;29;20034;-70
2024/01/18 21:27:59;;;;;;;9.43;3.72;;;;;;;;;;4935172;29;20024;-71
2024/01/18 21:30:25;;;;;;;6.60;3.58;;;;;;;;;;4935131;29;20024;-70
2024/01/18 21:32:51;;;;;;;7.20;3.35;;;;;;;;;;4917930;29;20051;-70
2024/01/18 21:35:17;;;;;;;10.02;3.50;;;;;;;;;;4935345;29;20016;-70
2024/01/18 21:37:42;;;;;;;7.72;3.03;;;;;;;;;;4934934;29;20031;-69
2024/01/18 21:40:08;;;;;;;4.43;3.20;;;;;;;;;;4935033;29;20066;-70
2024/01/18 21:42:33;;;;;;;7.10;3.25;;;;;;;;;;4935040;29;20028;-70
2024/01/18 21:44:59;;;;;;;5.45;3.30;;;;;;;;;;4934830;29;20060;-70
2024/01/18 21:47:24;;;;;;;6.53;3.30;;;;;;;;;;4934907;29;20380;-70
2024/01/18 21:49:50;;;;;;;6.25;3.03;;;;;;;;;;4935158;29;20024;-70
2024/01/18 21:52:16;;;;;;;7.20;3.45;;;;;;;;;;4935151;29;20070;-70
2024/01/18 21:54:42;;;;;;;4.82;3.42;;;;;;;;;;4934876;29;20024;-70
2024/01/18 21:57:07;;;;;;;5.97;3.38;;;;;;;;;;4934816;29;20047;-70
2024/01/18 21:59:33;;;;;;;5.20;3.05;;;;;;;;;;4934951;29;20428;-70
2024/01/18 22:01:59;;;;;;;5.78;3.20;;;;;;;;;;4934761;29;20418;-70
2024/01/18 22:04:24;;;;;;;4.53;3.20;;;;;;;;;;4934745;29;20032;-70
2024/01/18 22:06:50;;;;;;;6.53;3.17;;;;;;;;;;4934818;29;20036;-70
2024/01/18 22:09:16;;;;;;;5.70;3.05;;;;;;;;;;4934689;29;20028;-70
2024/01/18 22:11:42;;;;;;;7.43;3.55;;;;;;;;;;4934964;29;20020;-70
2024/01/18 22:14:08;;;;;;;6.45;3.10;;;;;;;;;;4934982;29;20036;-70
2024/01/18 22:16:34;;;;;;;8.52;3.35;;;;;;;;;;4937284;29;20112;-70
2024/01/18 22:18:59;;;;;;;6.35;3.03;;;;;;;;;;4938206;29;20024;-67
2024/01/18 22:21:25;;;;;;;7.05;3.30;;;;;;;;;;4929591;29;20122;-69
2024/01/18 22:23:50;;;;;;;7.70;3.35;;;;;;;;;;4927527;29;20024;-69
2024/01/18 22:26:16;;;;;;;6.65;3.42;;;;;;;;;;4928216;29;20088;-69
2024/01/18 22:28:41;;;;;;;6.93;3.17;;;;;;;;;;4928751;29;20020;-68
2024/01/18 22:31:07;;;;;;;5.18;2.83;;;;;;;;;;4926816;29;20028;-68
2024/01/18 22:33:33;;;;;;;5.35;3.30;;;;;;;;;;4928233;29;20114;-68
2024/01/18 22:36:01;;;;;;;3.80;3.00;;;;;;;;;;4928133;29;20030;-66
2024/01/18 22:38:26;;;;;;;5.18;2.88;;;;;;;;;;4926610;29;20035;-69
2024/01/18 22:40:52;;;;;;;5.10;3.25;;;;;;;;;;4928243;29;20027;-68
2024/01/18 22:43:18;;;;;;;4.93;3.28;;;;;;;;;;4927680;29;20023;-67
2024/01/18 22:45:43;;;;;;;7.13;2.88;;;;;;;;;;4926639;29;20064;-69
2024/01/18 22:48:09;;;;;;;3.58;2.90;;;;;;;;;;4928593;29;20020;-68
2024/01/18 22:50:35;;;;;;;5.50;2.97;;;;;;;;;;4910414;29;20035;-69
2024/01/18 22:53:05;;;;;;;4.82;3.08;;;;;;;;;;4927183;29;20023;-69
2024/01/18 22:55:32;;;;;;;5.07;3.03;;;;;;;;;;4926733;29;20024;-71
2024/01/18 22:57:58;;;;;;;4.38;3.03;;;;;;;;;;4927192;29;20123;-71
2024/01/18 23:00:24;;;;;;;8.68;3.40;;;;;;;;;;4928400;29;20187;-69
2024/01/18 23:02:50;;;;;;;5.28;2.90;;;;;;;;;;4926779;29;20389;-70
2024/01/18 23:05:16;;;;;;;3.35;2.58;;;;;;;;;;4910442;29;20045;-69
2024/01/18 23:07:42;;;;;;;4.25;3.00;;;;;;;;;;4928007;29;20376;-69
2024/01/18 23:10:10;;;;;;;4.88;2.60;;;;;;;;;;4926177;29;20028;-69
2024/01/18 23:12:36;;;;;;;6.32;2.92;;;;;;;;;;4927568;29;20388;-69
2024/01/18 23:15:02;;;;;;;4.78;3.58;;;;;;;;;;4933341;29;20366;-70
2024/01/18 23:17:29;;;;;;;6.03;2.83;;;;;;;;;;4919999;29;20032;-70
2024/01/18 23:19:55;;;;;;;5.07;2.83;;;;;;;;;;4937028;29;20128;-71
2024/01/18 23:22:20;;;;;;;4.88;2.97;;;;;;;;;;4936688;29;20037;-70
2024/01/18 23:24:46;;;;;;;3.85;2.70;;;;;;;;;;4937077;29;20425;-68
2024/01/18 23:27:11;;;;;;;4.53;2.90;;;;;;;;;;4936776;29;20032;-68
2024/01/18 23:29:37;;;;;;;3.97;2.50;;;;;;;;;;4936935;29;20082;-69
2024/01/18 23:32:02;;;;;;;3.03;2.53;;;;;;;;;;4936969;29;20481;-69
2024/01/18 23:34:28;;;;;;;5.35;2.75;;;;;;;;;;4936821;29;20455;-70
2024/01/18 23:36:54;;;;;;;3.03;2.53;;;;;;;;;;4935165;29;20023;-69
2024/01/18 23:39:19;;;;;;;9.73;2.75;;;;;;;;;;4935580;29;20064;-69
2024/01/18 23:41:45;;;;;;;3.22;2.50;;;;;;;;;;4918538;29;20034;-72
2024/01/18 23:44:11;;;;;;;3.83;2.80;;;;;;;;;;4934717;29;20130;-71
2024/01/18 23:46:38;;;;;;;3.50;2.40;;;;;;;;;;4935453;29;20094;-70
2024/01/18 23:49:04;;;;;;;7.45;3.05;;;;;;;;;;4936062;29;20608;-71
2024/01/18 23:51:30;;;;;;;4.95;2.78;;;;;;;;;;4935236;29;20040;-69
2024/01/18 23:53:56;;;;;;;4.03;2.58;;;;;;;;;;4936454;29;20039;-69
2024/01/18 23:56:21;;;;;;;3.88;2.90;;;;;;;;;;4936372;29;20028;-67
2024/01/18 23:58:47;;;;;;;3.15;2.55;;;;;;;;;;4936652;29;20055;-68
